sensor_id;sensor_type;location;lat;lon;timestamp;P1;durP1;ratioP1;P2;durP2;ratioP2
7669;SDS011;3877;42.562;27.636;2024-03-08T00:01:51;35.20;;;19.93;;
7669;SDS011;3877;42.562;27.636;2024-03-08T00:04:18;35.17;;;19.73;;
7669;SDS011;3877;42.562;27.636;2024-03-08T00:06:47;34.73;;;19.77;;
7669;SDS011;3877;42.562;27.636;2024-03-08T00:09:14;26.57;;;16.73;;
7669;SDS011;3877;42.562;27.636;2024-03-08T00:11:41;41.77;;;20.03;;
7669;SDS011;3877;42.562;27.636;2024-03-08T00:14:08;37.90;;;20.80;;
7669;SDS011;3877;42.562;27.636;2024-03-08T00:16:35;37.43;;;18.47;;
7669;SDS011;3877;42.562;27.636;2024-03-08T00:19:02;37.80;;;19.67;;
7669;SDS011;3877;42.562;27.636;2024-03-08T00:21:29;36.63;;;19.37;;
7669;SDS011;3877;42.562;27.636;2024-03-08T00:23:58;33.13;;;18.87;;
7669;SDS011;3877;42.562;27.636;2024-03-08T00:26:25;38.00;;;19.23;;
7669;SDS011;3877;42.562;27.636;2024-03-08T00:28:52;32.93;;;19.60;;
7669;SDS011;3877;42.562;27.636;2024-03-08T00:31:19;32.73;;;18.77;;
7669;SDS011;3877;42.562;27.636;2024-03-08T00:33:46;39.13;;;18.70;;
7669;SDS011;3877;42.562;27.636;2024-03-08T00:36:12;28.97;;;18.43;;
7669;SDS011;3877;42.562;27.636;2024-03-08T00:38:39;32.93;;;18.53;;
7669;SDS011;3877;42.562;27.636;2024-03-08T00:41:07;37.07;;;19.57;;
7669;SDS011;3877;42.562;27.636;2024-03-08T00:43:34;36.33;;;18.70;;
7669;SDS011;3877;42.562;27.636;2024-03-08T00:46:01;38.63;;;20.27;;
7669;SDS011;3877;42.562;27.636;2024-03-08T00:48:28;35.63;;;22.10;;
7669;SDS011;3877;42.562;27.636;2024-03-08T00:50:56;34.93;;;20.57;;
7669;SDS011;3877;42.562;27.636;2024-03-08T00:53:23;36.33;;;20.47;;
7669;SDS011;3877;42.562;27.636;2024-03-08T00:55:50;37.80;;;21.57;;
7669;SDS011;3877;42.562;27.636;2024-03-08T00:58:18;39.33;;;22.77;;
7669;SDS011;3877;42.562;27.636;2024-03-08T01:00:45;38.77;;;20.37;;
7669;SDS011;3877;42.562;27.636;2024-03-08T01:03:12;39.40;;;21.37;;
7669;SDS011;3877;42.562;27.636;2024-03-08T01:05:39;40.90;;;22.20;;
7669;SDS011;3877;42.562;27.636;2024-03-08T01:08:06;36.93;;;21.70;;
7669;SDS011;3877;42.562;27.636;2024-03-08T01:10:35;39.30;;;20.83;;
7669;SDS011;3877;42.562;27.636;2024-03-08T01:13:02;43.57;;;22.67;;
7669;SDS011;3877;42.562;27.636;2024-03-08T01:15:30;40.00;;;20.93;;
7669;SDS011;3877;42.562;27.636;2024-03-08T01:17:57;37.03;;;21.40;;
7669;SDS011;3877;42.562;27.636;2024-03-08T01:20:26;40.43;;;21.40;;
7669;SDS011;3877;42.562;27.636;2024-03-08T01:22:53;38.67;;;22.90;;
7669;SDS011;3877;42.562;27.636;2024-03-08T01:25:20;41.10;;;21.63;;
7669;SDS011;3877;42.562;27.636;2024-03-08T01:27:48;40.87;;;21.90;;
7669;SDS011;3877;42.562;27.636;2024-03-08T01:30:15;36.03;;;19.73;;
7669;SDS011;3877;42.562;27.636;2024-03-08T01:32:44;39.63;;;20.90;;
7669;SDS011;3877;42.562;27.636;2024-03-08T01:35:11;38.67;;;20.77;;
7669;SDS011;3877;42.562;27.636;2024-03-08T01:37:38;36.13;;;20.63;;
7669;SDS011;3877;42.562;27.636;2024-03-08T01:40:05;38.90;;;19.97;;
7669;SDS011;3877;42.562;27.636;2024-03-08T01:42:34;37.00;;;19.30;;
7669;SDS011;3877;42.562;27.636;2024-03-08T01:45:03;30.20;;;18.10;;
7669;SDS011;3877;42.562;27.636;2024-03-08T01:47:31;34.23;;;20.47;;
7669;SDS011;3877;42.562;27.636;2024-03-08T01:50:00;31.77;;;18.47;;
7669;SDS011;3877;42.562;27.636;2024-03-08T01:52:28;37.03;;;19.90;;
7669;SDS011;3877;42.562;27.636;2024-03-08T01:54:57;37.80;;;20.93;;
7669;SDS011;3877;42.562;27.636;2024-03-08T01:57:26;32.43;;;20.27;;
7669;SDS011;3877;42.562;27.636;2024-03-08T01:59:53;34.30;;;17.50;;
7669;SDS011;3877;42.562;27.636;2024-03-08T02:02:21;30.33;;;17.37;;
7669;SDS011;3877;42.562;27.636;2024-03-08T02:04:48;34.13;;;19.60;;
7669;SDS011;3877;42.562;27.636;2024-03-08T02:07:19;44.93;;;20.57;;
7669;SDS011;3877;42.562;27.636;2024-03-08T02:09:47;37.43;;;19.27;;
7669;SDS011;3877;42.562;27.636;2024-03-08T02:12:14;26.20;;;14.40;;
7669;SDS011;3877;42.562;27.636;2024-03-08T02:14:41;39.73;;;20.37;;
7669;SDS011;3877;42.562;27.636;2024-03-08T02:17:09;41.80;;;20.23;;
7669;SDS011;3877;42.562;27.636;2024-03-08T02:19:37;30.37;;;18.00;;
7669;SDS011;3877;42.562;27.636;2024-03-08T02:22:05;29.70;;;17.33;;
7669;SDS011;3877;42.562;27.636;2024-03-08T02:24:32;29.23;;;16.93;;
7669;SDS011;3877;42.562;27.636;2024-03-08T02:27:00;24.23;;;13.07;;
7669;SDS011;3877;42.562;27.636;2024-03-08T02:29:27;30.47;;;15.67;;
7669;SDS011;3877;42.562;27.636;2024-03-08T02:31:54;21.33;;;13.23;;
7669;SDS011;3877;42.562;27.636;2024-03-08T02:34:22;21.77;;;13.43;;
7669;SDS011;3877;42.562;27.636;2024-03-08T02:36:49;23.63;;;12.67;;
7669;SDS011;3877;42.562;27.636;2024-03-08T02:39:18;20.50;;;13.23;;
7669;SDS011;3877;42.562;27.636;2024-03-08T02:41:45;24.10;;;12.80;;
7669;SDS011;3877;42.562;27.636;2024-03-08T02:44:12;21.17;;;11.43;;
7669;SDS011;3877;42.562;27.636;2024-03-08T02:46:40;18.37;;;10.70;;
7669;SDS011;3877;42.562;27.636;2024-03-08T02:49:07;22.30;;;12.00;;
7669;SDS011;3877;42.562;27.636;2024-03-08T02:51:34;23.80;;;13.27;;
7669;SDS011;3877;42.562;27.636;2024-03-08T02:54:02;19.30;;;12.47;;
7669;SDS011;3877;42.562;27.636;2024-03-08T02:56:30;20.43;;;13.50;;
7669;SDS011;3877;42.562;27.636;2024-03-08T02:59:00;20.53;;;12.70;;
7669;SDS011;3877;42.562;27.636;2024-03-08T03:01:27;15.93;;;9.90;;
7669;SDS011;3877;42.562;27.636;2024-03-08T03:03:54;17.53;;;10.33;;
7669;SDS011;3877;42.562;27.636;2024-03-08T03:06:21;14.23;;;8.93;;
7669;SDS011;3877;42.562;27.636;2024-03-08T03:08:48;16.20;;;12.17;;
7669;SDS011;3877;42.562;27.636;2024-03-08T03:11:16;18.53;;;11.60;;
7669;SDS011;3877;42.562;27.636;2024-03-08T03:13:45;18.47;;;11.40;;
7669;SDS011;3877;42.562;27.636;2024-03-08T03:16:16;18.20;;;12.47;;
7669;SDS011;3877;42.562;27.636;2024-03-08T03:18:43;19.47;;;12.07;;
7669;SDS011;3877;42.562;27.636;2024-03-08T03:21:10;16.87;;;11.27;;
7669;SDS011;3877;42.562;27.636;2024-03-08T03:23:38;23.33;;;11.57;;
7669;SDS011;3877;42.562;27.636;2024-03-08T03:26:06;20.13;;;12.97;;
7669;SDS011;3877;42.562;27.636;2024-03-08T03:28:33;15.27;;;11.57;;
7669;SDS011;3877;42.562;27.636;2024-03-08T03:31:02;19.47;;;12.90;;
7669;SDS011;3877;42.562;27.636;2024-03-08T03:33:28;18.47;;;13.50;;
7669;SDS011;3877;42.562;27.636;2024-03-08T03:35:55;21.57;;;12.80;;
7669;SDS011;3877;42.562;27.636;2024-03-08T03:38:23;19.33;;;11.87;;
7669;SDS011;3877;42.562;27.636;2024-03-08T03:40:51;21.50;;;13.70;;
7669;SDS011;3877;42.562;27.636;2024-03-08T03:43:21;23.73;;;14.33;;
7669;SDS011;3877;42.562;27.636;2024-03-08T03:45:49;25.47;;;15.10;;
7669;SDS011;3877;42.562;27.636;2024-03-08T03:48:18;23.33;;;14.17;;
7669;SDS011;3877;42.562;27.636;2024-03-08T03:50:45;26.03;;;13.33;;
7669;SDS011;3877;42.562;27.636;2024-03-08T03:53:12;21.37;;;13.60;;
7669;SDS011;3877;42.562;27.636;2024-03-08T03:55:39;20.43;;;13.87;;
7669;SDS011;3877;42.562;27.636;2024-03-08T03:58:06;18.43;;;12.73;;
7669;SDS011;3877;42.562;27.636;2024-03-08T04:00:35;23.33;;;13.83;;
7669;SDS011;3877;42.562;27.636;2024-03-08T04:03:02;20.63;;;12.63;;
7669;SDS011;3877;42.562;27.636;2024-03-08T04:05:31;21.60;;;13.63;;
7669;SDS011;3877;42.562;27.636;2024-03-08T04:07:58;27.33;;;16.97;;
7669;SDS011;3877;42.562;27.636;2024-03-08T04:10:24;31.17;;;16.27;;
7669;SDS011;3877;42.562;27.636;2024-03-08T04:12:51;26.33;;;15.57;;
7669;SDS011;3877;42.562;27.636;2024-03-08T04:15:18;29.07;;;16.47;;
7669;SDS011;3877;42.562;27.636;2024-03-08T04:17:45;28.87;;;14.70;;
7669;SDS011;3877;42.562;27.636;2024-03-08T04:20:12;23.17;;;11.77;;
7669;SDS011;3877;42.562;27.636;2024-03-08T04:22:41;21.47;;;13.27;;
7669;SDS011;3877;42.562;27.636;2024-03-08T04:25:09;26.63;;;15.93;;
7669;SDS011;3877;42.562;27.636;2024-03-08T04:27:36;27.87;;;13.70;;
7669;SDS011;3877;42.562;27.636;2024-03-08T04:30:04;23.57;;;15.20;;
7669;SDS011;3877;42.562;27.636;2024-03-08T04:32:32;25.77;;;14.07;;
7669;SDS011;3877;42.562;27.636;2024-03-08T04:34:59;20.80;;;11.50;;
7669;SDS011;3877;42.562;27.636;2024-03-08T04:37:27;17.60;;;10.50;;
7669;SDS011;3877;42.562;27.636;2024-03-08T04:39:56;15.13;;;8.93;;
7669;SDS011;3877;42.562;27.636;2024-03-08T04:42:23;23.33;;;10.73;;
7669;SDS011;3877;42.562;27.636;2024-03-08T04:44:51;22.17;;;12.87;;
7669;SDS011;3877;42.562;27.636;2024-03-08T04:47:18;24.03;;;14.37;;
7669;SDS011;3877;42.562;27.636;2024-03-08T04:49:45;26.83;;;13.77;;
7669;SDS011;3877;42.562;27.636;2024-03-08T04:52:12;20.73;;;10.60;;
7669;SDS011;3877;42.562;27.636;2024-03-08T04:54:39;23.33;;;12.73;;
7669;SDS011;3877;42.562;27.636;2024-03-08T04:57:08;23.67;;;14.67;;
7669;SDS011;3877;42.562;27.636;2024-03-08T04:59:35;28.53;;;14.33;;
7669;SDS011;3877;42.562;27.636;2024-03-08T05:02:02;23.13;;;12.30;;
7669;SDS011;3877;42.562;27.636;2024-03-08T05:04:29;24.07;;;13.57;;
7669;SDS011;3877;42.562;27.636;2024-03-08T05:06:56;24.97;;;13.87;;
7669;SDS011;3877;42.562;27.636;2024-03-08T05:09:26;22.93;;;13.43;;
7669;SDS011;3877;42.562;27.636;2024-03-08T05:11:54;27.67;;;14.67;;
7669;SDS011;3877;42.562;27.636;2024-03-08T05:14:23;24.43;;;14.37;;
7669;SDS011;3877;42.562;27.636;2024-03-08T05:16:50;25.67;;;15.37;;
7669;SDS011;3877;42.562;27.636;2024-03-08T05:19:17;30.30;;;14.80;;
7669;SDS011;3877;42.562;27.636;2024-03-08T05:21:45;22.97;;;12.43;;
7669;SDS011;3877;42.562;27.636;2024-03-08T05:24:12;26.33;;;15.07;;
7669;SDS011;3877;42.562;27.636;2024-03-08T05:26:40;29.40;;;16.43;;
7669;SDS011;3877;42.562;27.636;2024-03-08T05:29:07;22.10;;;12.93;;
7669;SDS011;3877;42.562;27.636;2024-03-08T05:31:38;27.77;;;14.27;;
7669;SDS011;3877;42.562;27.636;2024-03-08T05:34:08;25.87;;;13.97;;
7669;SDS011;3877;42.562;27.636;2024-03-08T05:36:35;29.00;;;15.40;;
7669;SDS011;3877;42.562;27.636;2024-03-08T05:39:02;28.17;;;15.23;;
7669;SDS011;3877;42.562;27.636;2024-03-08T05:41:31;24.90;;;14.20;;
7669;SDS011;3877;42.562;27.636;2024-03-08T05:43:58;22.13;;;12.33;;
7669;SDS011;3877;42.562;27.636;2024-03-08T05:46:25;22.07;;;14.03;;
7669;SDS011;3877;42.562;27.636;2024-03-08T05:48:54;27.43;;;15.10;;
7669;SDS011;3877;42.562;27.636;2024-03-08T05:51:23;28.17;;;13.77;;
7669;SDS011;3877;42.562;27.636;2024-03-08T05:53:51;21.70;;;12.77;;
7669;SDS011;3877;42.562;27.636;2024-03-08T05:56:18;26.70;;;12.60;;
7669;SDS011;3877;42.562;27.636;2024-03-08T05:58:45;23.57;;;13.17;;
7669;SDS011;3877;42.562;27.636;2024-03-08T06:01:14;21.03;;;13.47;;
7669;SDS011;3877;42.562;27.636;2024-03-08T06:03:42;22.80;;;12.40;;
7669;SDS011;3877;42.562;27.636;2024-03-08T06:06:12;23.87;;;13.00;;
7669;SDS011;3877;42.562;27.636;2024-03-08T06:08:39;25.63;;;13.67;;
7669;SDS011;3877;42.562;27.636;2024-03-08T06:11:08;20.93;;;12.43;;
7669;SDS011;3877;42.562;27.636;2024-03-08T06:13:35;18.57;;;12.20;;
7669;SDS011;3877;42.562;27.636;2024-03-08T06:16:02;21.33;;;11.97;;
7669;SDS011;3877;42.562;27.636;2024-03-08T06:18:30;14.40;;;10.67;;
7669;SDS011;3877;42.562;27.636;2024-03-08T06:20:57;15.90;;;10.37;;
7669;SDS011;3877;42.562;27.636;2024-03-08T06:23:25;20.00;;;11.60;;
7669;SDS011;3877;42.562;27.636;2024-03-08T06:25:53;14.23;;;9.37;;
7669;SDS011;3877;42.562;27.636;2024-03-08T06:28:19;23.27;;;10.33;;
7669;SDS011;3877;42.562;27.636;2024-03-08T06:30:46;17.10;;;9.17;;
7669;SDS011;3877;42.562;27.636;2024-03-08T06:33:14;16.53;;;10.27;;
7669;SDS011;3877;42.562;27.636;2024-03-08T06:35:41;17.87;;;11.80;;
7669;SDS011;3877;42.562;27.636;2024-03-08T06:38:08;16.40;;;9.77;;
7669;SDS011;3877;42.562;27.636;2024-03-08T06:40:38;15.33;;;10.23;;
7669;SDS011;3877;42.562;27.636;2024-03-08T06:43:05;15.53;;;10.40;;
7669;SDS011;3877;42.562;27.636;2024-03-08T06:45:32;20.27;;;13.23;;
7669;SDS011;3877;42.562;27.636;2024-03-08T06:48:02;24.57;;;13.87;;
7669;SDS011;3877;42.562;27.636;2024-03-08T06:50:29;25.93;;;13.97;;
7669;SDS011;3877;42.562;27.636;2024-03-08T06:52:57;19.83;;;12.47;;
7669;SDS011;3877;42.562;27.636;2024-03-08T06:55:25;25.33;;;12.83;;
7669;SDS011;3877;42.562;27.636;2024-03-08T06:57:53;25.83;;;12.57;;
7669;SDS011;3877;42.562;27.636;2024-03-08T07:00:20;23.57;;;12.97;;
7669;SDS011;3877;42.562;27.636;2024-03-08T07:02:52;22.53;;;13.20;;
7669;SDS011;3877;42.562;27.636;2024-03-08T07:05:19;21.30;;;13.50;;
7669;SDS011;3877;42.562;27.636;2024-03-08T07:07:46;20.97;;;11.73;;
7669;SDS011;3877;42.562;27.636;2024-03-08T07:10:14;22.80;;;13.50;;
7669;SDS011;3877;42.562;27.636;2024-03-08T07:12:42;22.70;;;12.73;;
7669;SDS011;3877;42.562;27.636;2024-03-08T07:15:10;17.77;;;9.43;;
7669;SDS011;3877;42.562;27.636;2024-03-08T07:17:40;16.73;;;9.90;;
7669;SDS011;3877;42.562;27.636;2024-03-08T07:20:10;19.47;;;12.03;;
7669;SDS011;3877;42.562;27.636;2024-03-08T07:22:38;20.63;;;12.90;;
7669;SDS011;3877;42.562;27.636;2024-03-08T07:25:06;24.97;;;13.57;;
7669;SDS011;3877;42.562;27.636;2024-03-08T07:27:45;22.57;;;12.57;;
7669;SDS011;3877;42.562;27.636;2024-03-08T07:30:14;21.47;;;11.20;;
7669;SDS011;3877;42.562;27.636;2024-03-08T07:33:02;25.97;;;14.17;;
7669;SDS011;3877;42.562;27.636;2024-03-08T07:35:29;18.97;;;11.97;;
7669;SDS011;3877;42.562;27.636;2024-03-08T07:37:57;23.17;;;13.57;;
7669;SDS011;3877;42.562;27.636;2024-03-08T07:40:25;22.37;;;12.53;;
7669;SDS011;3877;42.562;27.636;2024-03-08T07:42:52;24.13;;;13.47;;
7669;SDS011;3877;42.562;27.636;2024-03-08T07:45:21;23.93;;;14.60;;
7669;SDS011;3877;42.562;27.636;2024-03-08T07:47:48;22.57;;;12.93;;
7669;SDS011;3877;42.562;27.636;2024-03-08T07:50:16;22.73;;;12.17;;
7669;SDS011;3877;42.562;27.636;2024-03-08T07:52:45;21.63;;;13.33;;
7669;SDS011;3877;42.562;27.636;2024-03-08T07:55:12;18.33;;;11.67;;
7669;SDS011;3877;42.562;27.636;2024-03-08T07:57:40;21.27;;;13.33;;
7669;SDS011;3877;42.562;27.636;2024-03-08T08:00:08;18.73;;;12.13;;
7669;SDS011;3877;42.562;27.636;2024-03-08T08:02:37;24.00;;;14.40;;
7669;SDS011;3877;42.562;27.636;2024-03-08T08:05:04;31.70;;;14.53;;
7669;SDS011;3877;42.562;27.636;2024-03-08T08:07:32;22.40;;;13.00;;
7669;SDS011;3877;42.562;27.636;2024-03-08T08:09:58;21.13;;;12.57;;
7669;SDS011;3877;42.562;27.636;2024-03-08T08:12:32;24.57;;;12.80;;
7669;SDS011;3877;42.562;27.636;2024-03-08T08:15:00;21.57;;;11.50;;
7669;SDS011;3877;42.562;27.636;2024-03-08T08:17:27;22.80;;;13.73;;
7669;SDS011;3877;42.562;27.636;2024-03-08T08:19:56;21.83;;;13.67;;
7669;SDS011;3877;42.562;27.636;2024-03-08T08:22:23;26.13;;;12.70;;
7669;SDS011;3877;42.562;27.636;2024-03-08T08:24:50;25.67;;;14.83;;
7669;SDS011;3877;42.562;27.636;2024-03-08T08:27:18;24.67;;;14.10;;
7669;SDS011;3877;42.562;27.636;2024-03-08T08:29:45;29.97;;;15.10;;
7669;SDS011;3877;42.562;27.636;2024-03-08T08:32:12;22.37;;;12.87;;
7669;SDS011;3877;42.562;27.636;2024-03-08T08:34:39;29.17;;;13.70;;
7669;SDS011;3877;42.562;27.636;2024-03-08T08:37:11;29.00;;;17.03;;
7669;SDS011;3877;42.562;27.636;2024-03-08T08:39:38;28.43;;;14.07;;
7669;SDS011;3877;42.562;27.636;2024-03-08T08:42:05;22.03;;;13.57;;
7669;SDS011;3877;42.562;27.636;2024-03-08T08:44:34;27.20;;;14.53;;
7669;SDS011;3877;42.562;27.636;2024-03-08T08:47:01;23.43;;;13.80;;
7669;SDS011;3877;42.562;27.636;2024-03-08T08:49:29;25.40;;;15.10;;
7669;SDS011;3877;42.562;27.636;2024-03-08T08:51:56;27.63;;;13.57;;
7669;SDS011;3877;42.562;27.636;2024-03-08T08:54:25;25.40;;;14.03;;
7669;SDS011;3877;42.562;27.636;2024-03-08T08:56:53;30.40;;;16.07;;
7669;SDS011;3877;42.562;27.636;2024-03-08T08:59:20;19.57;;;13.53;;
7669;SDS011;3877;42.562;27.636;2024-03-08T09:01:50;23.30;;;13.67;;
7669;SDS011;3877;42.562;27.636;2024-03-08T09:04:19;25.53;;;14.93;;
7669;SDS011;3877;42.562;27.636;2024-03-08T09:06:48;25.63;;;14.10;;
7669;SDS011;3877;42.562;27.636;2024-03-08T09:09:15;25.20;;;13.60;;
7669;SDS011;3877;42.562;27.636;2024-03-08T09:11:44;24.37;;;14.13;;
7669;SDS011;3877;42.562;27.636;2024-03-08T09:14:11;27.37;;;14.57;;
7669;SDS011;3877;42.562;27.636;2024-03-08T09:16:39;23.07;;;14.03;;
7669;SDS011;3877;42.562;27.636;2024-03-08T09:19:06;23.10;;;16.37;;
7669;SDS011;3877;42.562;27.636;2024-03-08T09:21:36;27.13;;;14.87;;
7669;SDS011;3877;42.562;27.636;2024-03-08T09:24:05;31.00;;;16.47;;
7669;SDS011;3877;42.562;27.636;2024-03-08T09:26:32;23.97;;;14.27;;
7669;SDS011;3877;42.562;27.636;2024-03-08T09:29:00;24.50;;;14.63;;
7669;SDS011;3877;42.562;27.636;2024-03-08T09:31:27;23.77;;;14.20;;
7669;SDS011;3877;42.562;27.636;2024-03-08T09:33:54;22.53;;;13.30;;
7669;SDS011;3877;42.562;27.636;2024-03-08T09:36:21;24.40;;;15.53;;
7669;SDS011;3877;42.562;27.636;2024-03-08T09:38:48;21.97;;;11.93;;
7669;SDS011;3877;42.562;27.636;2024-03-08T09:41:16;20.13;;;14.07;;
7669;SDS011;3877;42.562;27.636;2024-03-08T09:43:43;26.20;;;14.10;;
7669;SDS011;3877;42.562;27.636;2024-03-08T09:46:12;28.57;;;14.53;;
7669;SDS011;3877;42.562;27.636;2024-03-08T09:48:39;28.00;;;14.30;;
7669;SDS011;3877;42.562;27.636;2024-03-08T09:51:07;22.73;;;12.13;;
7669;SDS011;3877;42.562;27.636;2024-03-08T09:53:34;23.07;;;13.50;;
7669;SDS011;3877;42.562;27.636;2024-03-08T09:56:02;19.97;;;10.97;;
7669;SDS011;3877;42.562;27.636;2024-03-08T09:58:30;22.57;;;14.40;;
7669;SDS011;3877;42.562;27.636;2024-03-08T10:01:19;26.33;;;13.50;;
7669;SDS011;3877;42.562;27.636;2024-03-08T10:03:47;14.93;;;10.20;;
7669;SDS011;3877;42.562;27.636;2024-03-08T10:06:15;26.97;;;13.03;;
7669;SDS011;3877;42.562;27.636;2024-03-08T10:08:42;20.60;;;12.20;;
7669;SDS011;3877;42.562;27.636;2024-03-08T10:11:10;19.63;;;13.07;;
7669;SDS011;3877;42.562;27.636;2024-03-08T10:13:38;25.23;;;11.80;;
7669;SDS011;3877;42.562;27.636;2024-03-08T10:16:07;27.83;;;13.33;;
7669;SDS011;3877;42.562;27.636;2024-03-08T10:18:36;23.13;;;11.00;;
7669;SDS011;3877;42.562;27.636;2024-03-08T10:21:04;16.20;;;10.83;;
7669;SDS011;3877;42.562;27.636;2024-03-08T10:23:32;19.40;;;11.97;;
7669;SDS011;3877;42.562;27.636;2024-03-08T10:26:09;18.40;;;13.13;;
7669;SDS011;3877;42.562;27.636;2024-03-08T10:28:36;19.80;;;12.30;;
7669;SDS011;3877;42.562;27.636;2024-03-08T10:31:03;21.37;;;10.80;;
7669;SDS011;3877;42.562;27.636;2024-03-08T10:33:31;13.63;;;8.50;;
7669;SDS011;3877;42.562;27.636;2024-03-08T10:36:00;16.10;;;11.10;;
7669;SDS011;3877;42.562;27.636;2024-03-08T10:38:29;16.23;;;9.67;;
7669;SDS011;3877;42.562;27.636;2024-03-08T10:40:58;15.87;;;9.63;;
7669;SDS011;3877;42.562;27.636;2024-03-08T10:43:25;16.00;;;9.17;;
7669;SDS011;3877;42.562;27.636;2024-03-08T10:46:00;14.97;;;7.57;;
7669;SDS011;3877;42.562;27.636;2024-03-08T10:48:31;12.37;;;8.73;;
7669;SDS011;3877;42.562;27.636;2024-03-08T10:51:00;14.57;;;7.40;;
7669;SDS011;3877;42.562;27.636;2024-03-08T10:53:29;14.70;;;9.10;;
7669;SDS011;3877;42.562;27.636;2024-03-08T10:55:56;14.63;;;9.07;;
7669;SDS011;3877;42.562;27.636;2024-03-08T10:58:24;10.50;;;7.10;;
7669;SDS011;3877;42.562;27.636;2024-03-08T11:00:52;13.43;;;8.30;;
7669;SDS011;3877;42.562;27.636;2024-03-08T11:06:10;13.27;;;8.93;;
7669;SDS011;3877;42.562;27.636;2024-03-08T11:08:40;11.80;;;7.67;;
7669;SDS011;3877;42.562;27.636;2024-03-08T11:11:11;12.83;;;7.77;;
7669;SDS011;3877;42.562;27.636;2024-03-08T11:13:52;12.00;;;7.40;;
7669;SDS011;3877;42.562;27.636;2024-03-08T11:16:37;13.17;;;7.43;;
7669;SDS011;3877;42.562;27.636;2024-03-08T11:19:06;12.27;;;7.63;;
7669;SDS011;3877;42.562;27.636;2024-03-08T11:21:37;11.80;;;8.20;;
7669;SDS011;3877;42.562;27.636;2024-03-08T11:24:07;10.10;;;6.93;;
7669;SDS011;3877;42.562;27.636;2024-03-08T11:26:37;13.80;;;7.13;;
7669;SDS011;3877;42.562;27.636;2024-03-08T11:31:46;11.80;;;7.27;;
7669;SDS011;3877;42.562;27.636;2024-03-08T11:34:15;10.00;;;7.27;;
7669;SDS011;3877;42.562;27.636;2024-03-08T11:36:47;10.27;;;6.57;;
7669;SDS011;3877;42.562;27.636;2024-03-08T11:39:14;12.70;;;7.13;;
7669;SDS011;3877;42.562;27.636;2024-03-08T11:41:44;10.50;;;6.43;;
7669;SDS011;3877;42.562;27.636;2024-03-08T11:44:11;11.63;;;7.30;;
7669;SDS011;3877;42.562;27.636;2024-03-08T11:46:41;16.50;;;8.23;;
7669;SDS011;3877;42.562;27.636;2024-03-08T11:49:12;14.30;;;7.57;;
7669;SDS011;3877;42.562;27.636;2024-03-08T11:51:39;13.47;;;8.80;;
7669;SDS011;3877;42.562;27.636;2024-03-08T11:54:10;13.27;;;7.70;;
7669;SDS011;3877;42.562;27.636;2024-03-08T11:56:38;14.93;;;8.07;;
7669;SDS011;3877;42.562;27.636;2024-03-08T11:59:10;13.27;;;7.80;;
7669;SDS011;3877;42.562;27.636;2024-03-08T12:01:37;17.30;;;7.90;;
7669;SDS011;3877;42.562;27.636;2024-03-08T12:04:04;15.40;;;7.97;;
7669;SDS011;3877;42.562;27.636;2024-03-08T12:06:36;12.17;;;7.10;;
7669;SDS011;3877;42.562;27.636;2024-03-08T12:09:05;10.20;;;6.93;;
7669;SDS011;3877;42.562;27.636;2024-03-08T12:11:36;11.83;;;8.17;;
7669;SDS011;3877;42.562;27.636;2024-03-08T12:14:03;14.03;;;9.67;;
7669;SDS011;3877;42.562;27.636;2024-03-08T12:16:31;12.67;;;8.40;;
7669;SDS011;3877;42.562;27.636;2024-03-08T12:18:59;14.37;;;9.80;;
7669;SDS011;3877;42.562;27.636;2024-03-08T12:21:26;16.87;;;9.70;;
7669;SDS011;3877;42.562;27.636;2024-03-08T12:24:04;17.77;;;8.90;;
7669;SDS011;3877;42.562;27.636;2024-03-08T12:26:34;13.47;;;9.17;;
7669;SDS011;3877;42.562;27.636;2024-03-08T12:29:16;18.53;;;9.97;;
7669;SDS011;3877;42.562;27.636;2024-03-08T12:31:45;14.73;;;10.40;;
7669;SDS011;3877;42.562;27.636;2024-03-08T12:34:12;20.10;;;10.10;;
7669;SDS011;3877;42.562;27.636;2024-03-08T12:36:43;22.40;;;11.60;;
7669;SDS011;3877;42.562;27.636;2024-03-08T12:39:13;20.87;;;11.20;;
7669;SDS011;3877;42.562;27.636;2024-03-08T12:41:41;16.83;;;10.60;;
7669;SDS011;3877;42.562;27.636;2024-03-08T12:44:08;19.17;;;10.00;;
7669;SDS011;3877;42.562;27.636;2024-03-08T12:46:38;19.20;;;9.47;;
7669;SDS011;3877;42.562;27.636;2024-03-08T12:49:08;13.00;;;9.43;;
7669;SDS011;3877;42.562;27.636;2024-03-08T12:51:36;15.80;;;10.80;;
7669;SDS011;3877;42.562;27.636;2024-03-08T12:54:04;13.53;;;8.93;;
7669;SDS011;3877;42.562;27.636;2024-03-08T12:56:33;19.30;;;10.37;;
7669;SDS011;3877;42.562;27.636;2024-03-08T12:59:00;16.30;;;10.23;;
7669;SDS011;3877;42.562;27.636;2024-03-08T13:01:28;20.20;;;10.00;;
7669;SDS011;3877;42.562;27.636;2024-03-08T13:03:57;19.13;;;11.93;;
7669;SDS011;3877;42.562;27.636;2024-03-08T13:06:24;17.80;;;11.67;;
7669;SDS011;3877;42.562;27.636;2024-03-08T13:08:51;20.13;;;14.13;;
7669;SDS011;3877;42.562;27.636;2024-03-08T13:11:19;17.20;;;11.67;;
7669;SDS011;3877;42.562;27.636;2024-03-08T13:13:46;23.67;;;14.07;;
7669;SDS011;3877;42.562;27.636;2024-03-08T13:16:14;22.67;;;11.90;;
7669;SDS011;3877;42.562;27.636;2024-03-08T13:18:42;23.13;;;12.43;;
7669;SDS011;3877;42.562;27.636;2024-03-08T13:21:11;24.83;;;12.47;;
7669;SDS011;3877;42.562;27.636;2024-03-08T13:23:41;22.30;;;13.20;;
7669;SDS011;3877;42.562;27.636;2024-03-08T13:26:11;21.23;;;12.70;;
7669;SDS011;3877;42.562;27.636;2024-03-08T13:28:40;25.83;;;14.50;;
7669;SDS011;3877;42.562;27.636;2024-03-08T13:31:07;21.03;;;13.13;;
7669;SDS011;3877;42.562;27.636;2024-03-08T13:33:35;28.07;;;14.10;;
7669;SDS011;3877;42.562;27.636;2024-03-08T13:36:04;23.67;;;13.50;;
7669;SDS011;3877;42.562;27.636;2024-03-08T13:38:33;25.73;;;14.07;;
7669;SDS011;3877;42.562;27.636;2024-03-08T13:41:02;20.80;;;13.07;;
7669;SDS011;3877;42.562;27.636;2024-03-08T13:43:29;28.23;;;14.90;;
7669;SDS011;3877;42.562;27.636;2024-03-08T13:45:59;23.43;;;13.67;;
7669;SDS011;3877;42.562;27.636;2024-03-08T13:48:26;24.33;;;13.37;;
7669;SDS011;3877;42.562;27.636;2024-03-08T13:50:53;27.37;;;14.80;;
7669;SDS011;3877;42.562;27.636;2024-03-08T13:53:22;30.13;;;15.33;;
7669;SDS011;3877;42.562;27.636;2024-03-08T13:55:51;29.53;;;15.33;;
7669;SDS011;3877;42.562;27.636;2024-03-08T13:58:19;26.17;;;14.07;;
7669;SDS011;3877;42.562;27.636;2024-03-08T14:00:47;29.00;;;13.90;;
7669;SDS011;3877;42.562;27.636;2024-03-08T14:03:14;24.73;;;12.70;;
7669;SDS011;3877;42.562;27.636;2024-03-08T14:05:42;22.20;;;14.07;;
7669;SDS011;3877;42.562;27.636;2024-03-08T14:08:10;23.30;;;13.77;;
7669;SDS011;3877;42.562;27.636;2024-03-08T14:10:37;23.87;;;12.43;;
7669;SDS011;3877;42.562;27.636;2024-03-08T14:13:06;23.23;;;12.43;;
7669;SDS011;3877;42.562;27.636;2024-03-08T14:15:34;21.57;;;12.40;;
7669;SDS011;3877;42.562;27.636;2024-03-08T14:18:01;20.77;;;11.80;;
7669;SDS011;3877;42.562;27.636;2024-03-08T14:20:28;22.00;;;12.30;;
7669;SDS011;3877;42.562;27.636;2024-03-08T14:22:56;19.80;;;10.80;;
7669;SDS011;3877;42.562;27.636;2024-03-08T14:25:23;20.20;;;11.37;;
7669;SDS011;3877;42.562;27.636;2024-03-08T14:27:50;22.23;;;11.80;;
7669;SDS011;3877;42.562;27.636;2024-03-08T14:30:20;19.03;;;10.80;;
7669;SDS011;3877;42.562;27.636;2024-03-08T14:33:00;17.97;;;11.43;;
7669;SDS011;3877;42.562;27.636;2024-03-08T14:35:27;20.27;;;11.57;;
7669;SDS011;3877;42.562;27.636;2024-03-08T14:37:54;19.37;;;11.77;;
7669;SDS011;3877;42.562;27.636;2024-03-08T14:40:22;22.63;;;11.80;;
7669;SDS011;3877;42.562;27.636;2024-03-08T14:42:49;19.53;;;11.40;;
7669;SDS011;3877;42.562;27.636;2024-03-08T14:45:17;20.20;;;11.20;;
7669;SDS011;3877;42.562;27.636;2024-03-08T14:47:46;23.27;;;11.83;;